sensor_id;sensor_type;location;lat;lon;timestamp;P1;durP1;ratioP1;P2;durP2;ratioP2
9413;SDS011;4746;35.664;139.738;2022-12-13T00:01:53;9.13;;;8.20;;
9413;SDS011;4746;35.664;139.738;2022-12-13T00:04:21;9.77;;;8.70;;
9413;SDS011;4746;35.664;139.738;2022-12-13T00:06:50;9.37;;;8.27;;
9413;SDS011;4746;35.664;139.738;2022-12-13T00:09:21;9.07;;;7.60;;
9413;SDS011;4746;35.664;139.738;2022-12-13T00:11:49;8.37;;;7.60;;
9413;SDS011;4746;35.664;139.738;2022-12-13T00:14:17;12.20;;;9.83;;
9413;SDS011;4746;35.664;139.738;2022-12-13T00:16:46;11.17;;;9.33;;
9413;SDS011;4746;35.664;139.738;2022-12-13T00:19:15;10.37;;;9.33;;
9413;SDS011;4746;35.664;139.738;2022-12-13T00:21:43;10.33;;;9.33;;
9413;SDS011;4746;35.664;139.738;2022-12-13T00:24:11;10.37;;;9.47;;
9413;SDS011;4746;35.664;139.738;2022-12-13T00:26:39;10.97;;;9.97;;
9413;SDS011;4746;35.664;139.738;2022-12-13T00:29:07;11.93;;;10.73;;
9413;SDS011;4746;35.664;139.738;2022-12-13T00:31:36;13.13;;;11.83;;
9413;SDS011;4746;35.664;139.738;2022-12-13T00:34:04;11.87;;;10.57;;
9413;SDS011;4746;35.664;139.738;2022-12-13T00:36:32;10.87;;;9.87;;
9413;SDS011;4746;35.664;139.738;2022-12-13T00:38:59;11.60;;;10.40;;
9413;SDS011;4746;35.664;139.738;2022-12-13T00:41:34;10.83;;;9.87;;
9413;SDS011;4746;35.664;139.738;2022-12-13T00:44:02;10.47;;;9.57;;
9413;SDS011;4746;35.664;139.738;2022-12-13T00:46:30;13.47;;;11.10;;
9413;SDS011;4746;35.664;139.738;2022-12-13T00:48:59;12.43;;;11.27;;
9413;SDS011;4746;35.664;139.738;2022-12-13T00:51:29;13.03;;;11.70;;
9413;SDS011;4746;35.664;139.738;2022-12-13T00:53:59;13.50;;;12.30;;
9413;SDS011;4746;35.664;139.738;2022-12-13T00:56:30;12.80;;;11.43;;
9413;SDS011;4746;35.664;139.738;2022-12-13T00:58:58;13.50;;;12.13;;
9413;SDS011;4746;35.664;139.738;2022-12-13T01:01:29;13.50;;;12.10;;
9413;SDS011;4746;35.664;139.738;2022-12-13T01:04:01;13.60;;;12.40;;
9413;SDS011;4746;35.664;139.738;2022-12-13T01:06:32;15.07;;;12.97;;
9413;SDS011;4746;35.664;139.738;2022-12-13T01:09:18;14.27;;;11.67;;
9413;SDS011;4746;35.664;139.738;2022-12-13T01:11:55;13.80;;;12.43;;
9413;SDS011;4746;35.664;139.738;2022-12-13T01:14:33;14.53;;;13.27;;
9413;SDS011;4746;35.664;139.738;2022-12-13T01:17:03;13.90;;;12.53;;
9413;SDS011;4746;35.664;139.738;2022-12-13T01:19:33;12.33;;;11.20;;
9413;SDS011;4746;35.664;139.738;2022-12-13T01:22:03;12.63;;;11.53;;
9413;SDS011;4746;35.664;139.738;2022-12-13T01:24:32;10.17;;;9.37;;
9413;SDS011;4746;35.664;139.738;2022-12-13T01:27:00;10.90;;;9.90;;
9413;SDS011;4746;35.664;139.738;2022-12-13T01:29:27;12.80;;;11.50;;
9413;SDS011;4746;35.664;139.738;2022-12-13T01:31:55;11.37;;;10.17;;
9413;SDS011;4746;35.664;139.738;2022-12-13T01:34:23;10.27;;;9.27;;
9413;SDS011;4746;35.664;139.738;2022-12-13T01:36:52;11.43;;;10.37;;
9413;SDS011;4746;35.664;139.738;2022-12-13T01:39:21;12.13;;;11.07;;
9413;SDS011;4746;35.664;139.738;2022-12-13T01:41:50;10.13;;;9.13;;
9413;SDS011;4746;35.664;139.738;2022-12-13T01:47:29;11.50;;;10.50;;
9413;SDS011;4746;35.664;139.738;2022-12-13T01:50:21;11.10;;;10.10;;
9413;SDS011;4746;35.664;139.738;2022-12-13T01:53:07;11.27;;;10.27;;
9413;SDS011;4746;35.664;139.738;2022-12-13T01:55:51;8.93;;;8.10;;
9413;SDS011;4746;35.664;139.738;2022-12-13T01:58:26;9.13;;;8.43;;
9413;SDS011;4746;35.664;139.738;2022-12-13T02:00:55;9.77;;;8.67;;
9413;SDS011;4746;35.664;139.738;2022-12-13T02:03:26;9.27;;;8.33;;
9413;SDS011;4746;35.664;139.738;2022-12-13T02:09:00;8.17;;;7.33;;
9413;SDS011;4746;35.664;139.738;2022-12-13T02:11:31;8.23;;;7.53;;
9413;SDS011;4746;35.664;139.738;2022-12-13T02:14:02;8.17;;;7.40;;
9413;SDS011;4746;35.664;139.738;2022-12-13T02:16:42;8.77;;;7.30;;
9413;SDS011;4746;35.664;139.738;2022-12-13T02:29:05;7.13;;;6.43;;
9413;SDS011;4746;35.664;139.738;2022-12-13T02:32:20;7.73;;;6.93;;
9413;SDS011;4746;35.664;139.738;2022-12-13T02:35:45;7.27;;;6.60;;
9413;SDS011;4746;35.664;139.738;2022-12-13T02:38:26;7.40;;;6.80;;
9413;SDS011;4746;35.664;139.738;2022-12-13T02:41:40;7.80;;;7.10;;
9413;SDS011;4746;35.664;139.738;2022-12-13T02:44:55;7.20;;;6.60;;
9413;SDS011;4746;35.664;139.738;2022-12-13T02:47:40;10.27;;;7.50;;
9413;SDS011;4746;35.664;139.738;2022-12-13T02:50:09;7.97;;;7.03;;
9413;SDS011;4746;35.664;139.738;2022-12-13T02:52:39;7.07;;;6.47;;
9413;SDS011;4746;35.664;139.738;2022-12-13T02:55:11;9.03;;;6.77;;
9413;SDS011;4746;35.664;139.738;2022-12-13T02:57:42;8.50;;;6.60;;
9413;SDS011;4746;35.664;139.738;2022-12-13T03:02:52;7.50;;;6.80;;
9413;SDS011;4746;35.664;139.738;2022-12-13T03:08:54;7.67;;;6.87;;
9413;SDS011;4746;35.664;139.738;2022-12-13T03:12:29;9.30;;;7.20;;
9413;SDS011;4746;35.664;139.738;2022-12-13T03:18:28;8.33;;;7.07;;
9413;SDS011;4746;35.664;139.738;2022-12-13T03:21:03;8.40;;;7.60;;
9413;SDS011;4746;35.664;139.738;2022-12-13T03:23:34;8.27;;;7.23;;
9413;SDS011;4746;35.664;139.738;2022-12-13T03:26:08;8.13;;;7.33;;
9413;SDS011;4746;35.664;139.738;2022-12-13T03:28:47;8.20;;;7.50;;
9413;SDS011;4746;35.664;139.738;2022-12-13T03:31:15;8.97;;;8.17;;
9413;SDS011;4746;35.664;139.738;2022-12-13T03:33:44;7.97;;;6.77;;
9413;SDS011;4746;35.664;139.738;2022-12-13T03:36:12;8.83;;;8.03;;
9413;SDS011;4746;35.664;139.738;2022-12-13T03:38:41;7.70;;;7.00;;
9413;SDS011;4746;35.664;139.738;2022-12-13T03:41:12;8.20;;;7.50;;
9413;SDS011;4746;35.664;139.738;2022-12-13T03:43:45;7.93;;;7.23;;
9413;SDS011;4746;35.664;139.738;2022-12-13T03:46:13;8.13;;;7.00;;
9413;SDS011;4746;35.664;139.738;2022-12-13T03:48:41;9.63;;;8.67;;
9413;SDS011;4746;35.664;139.738;2022-12-13T03:51:09;10.43;;;8.50;;
9413;SDS011;4746;35.664;139.738;2022-12-13T03:53:36;9.97;;;9.00;;
9413;SDS011;4746;35.664;139.738;2022-12-13T03:56:04;11.63;;;8.27;;
9413;SDS011;4746;35.664;139.738;2022-12-13T03:58:33;8.97;;;8.17;;
9413;SDS011;4746;35.664;139.738;2022-12-13T04:01:01;9.57;;;8.73;;
9413;SDS011;4746;35.664;139.738;2022-12-13T04:03:31;9.70;;;8.80;;
9413;SDS011;4746;35.664;139.738;2022-12-13T04:05:59;9.40;;;8.53;;
9413;SDS011;4746;35.664;139.738;2022-12-13T04:08:27;9.93;;;8.90;;
9413;SDS011;4746;35.664;139.738;2022-12-13T04:10:54;11.43;;;10.23;;
9413;SDS011;4746;35.664;139.738;2022-12-13T04:13:22;9.77;;;8.97;;
9413;SDS011;4746;35.664;139.738;2022-12-13T04:15:59;10.90;;;9.90;;
9413;SDS011;4746;35.664;139.738;2022-12-13T04:18:27;10.70;;;9.60;;
9413;SDS011;4746;35.664;139.738;2022-12-13T04:20:55;10.30;;;9.40;;
9413;SDS011;4746;35.664;139.738;2022-12-13T04:23:23;11.47;;;10.37;;
9413;SDS011;4746;35.664;139.738;2022-12-13T04:25:50;11.43;;;10.33;;
9413;SDS011;4746;35.664;139.738;2022-12-13T04:28:18;11.70;;;10.50;;
9413;SDS011;4746;35.664;139.738;2022-12-13T04:30:47;12.53;;;11.33;;
9413;SDS011;4746;35.664;139.738;2022-12-13T04:33:18;14.80;;;12.00;;
9413;SDS011;4746;35.664;139.738;2022-12-13T04:35:48;12.97;;;11.83;;
9413;SDS011;4746;35.664;139.738;2022-12-13T04:38:16;13.07;;;11.73;;
9413;SDS011;4746;35.664;139.738;2022-12-13T04:40:45;11.97;;;10.77;;
9413;SDS011;4746;35.664;139.738;2022-12-13T04:43:12;11.50;;;10.30;;
9413;SDS011;4746;35.664;139.738;2022-12-13T04:45:40;11.27;;;10.27;;
9413;SDS011;4746;35.664;139.738;2022-12-13T04:48:07;13.13;;;11.83;;
9413;SDS011;4746;35.664;139.738;2022-12-13T04:50:35;11.30;;;9.67;;
9413;SDS011;4746;35.664;139.738;2022-12-13T04:53:03;11.77;;;9.80;;
9413;SDS011;4746;35.664;139.738;2022-12-13T04:55:30;10.93;;;9.77;;
9413;SDS011;4746;35.664;139.738;2022-12-13T04:57:58;11.33;;;9.40;;
9413;SDS011;4746;35.664;139.738;2022-12-13T05:00:25;10.40;;;9.40;;
9413;SDS011;4746;35.664;139.738;2022-12-13T05:02:53;10.93;;;9.67;;
9413;SDS011;4746;35.664;139.738;2022-12-13T05:05:20;10.80;;;8.67;;
9413;SDS011;4746;35.664;139.738;2022-12-13T05:07:48;8.73;;;7.83;;
9413;SDS011;4746;35.664;139.738;2022-12-13T05:10:15;11.10;;;9.03;;
9413;SDS011;4746;35.664;139.738;2022-12-13T05:12:43;10.30;;;9.27;;
9413;SDS011;4746;35.664;139.738;2022-12-13T05:15:10;9.25;;;8.35;;
9413;SDS011;4746;35.664;139.738;2022-12-13T05:17:38;12.03;;;9.10;;
9413;SDS011;4746;35.664;139.738;2022-12-13T05:20:07;12.57;;;9.80;;
9413;SDS011;4746;35.664;139.738;2022-12-13T05:22:35;9.70;;;8.90;;
9413;SDS011;4746;35.664;139.738;2022-12-13T05:25:03;10.10;;;9.20;;
9413;SDS011;4746;35.664;139.738;2022-12-13T05:27:32;9.77;;;8.57;;
9413;SDS011;4746;35.664;139.738;2022-12-13T05:29:59;10.00;;;9.10;;
9413;SDS011;4746;35.664;139.738;2022-12-13T05:32:27;11.20;;;10.20;;
9413;SDS011;4746;35.664;139.738;2022-12-13T05:35:03;11.30;;;10.20;;
9413;SDS011;4746;35.664;139.738;2022-12-13T05:37:31;11.13;;;10.23;;
9413;SDS011;4746;35.664;139.738;2022-12-13T05:39:58;12.50;;;11.40;;
9413;SDS011;4746;35.664;139.738;2022-12-13T05:42:26;12.40;;;10.13;;
9413;SDS011;4746;35.664;139.738;2022-12-13T05:44:56;11.77;;;10.73;;
9413;SDS011;4746;35.664;139.738;2022-12-13T05:47:23;11.87;;;10.67;;
9413;SDS011;4746;35.664;139.738;2022-12-13T05:49:51;11.40;;;10.40;;
9413;SDS011;4746;35.664;139.738;2022-12-13T05:52:20;15.43;;;10.63;;
9413;SDS011;4746;35.664;139.738;2022-12-13T05:54:52;12.27;;;10.90;;
9413;SDS011;4746;35.664;139.738;2022-12-13T05:57:22;13.37;;;11.83;;
9413;SDS011;4746;35.664;139.738;2022-12-13T05:59:50;11.10;;;9.87;;
9413;SDS011;4746;35.664;139.738;2022-12-13T06:02:18;11.40;;;10.20;;
9413;SDS011;4746;35.664;139.738;2022-12-13T06:04:45;11.43;;;10.27;;
9413;SDS011;4746;35.664;139.738;2022-12-13T06:07:13;10.85;;;9.77;;
9413;SDS011;4746;35.664;139.738;2022-12-13T06:09:41;10.88;;;9.88;;
9413;SDS011;4746;35.664;139.738;2022-12-13T06:12:08;12.55;;;9.52;;
9413;SDS011;4746;35.664;139.738;2022-12-13T06:14:36;11.63;;;10.43;;
9413;SDS011;4746;35.664;139.738;2022-12-13T06:17:03;11.82;;;10.73;;
9413;SDS011;4746;35.664;139.738;2022-12-13T06:19:31;11.13;;;10.00;;
9413;SDS011;4746;35.664;139.738;2022-12-13T06:21:58;11.10;;;10.10;;
9413;SDS011;4746;35.664;139.738;2022-12-13T06:24:26;11.18;;;10.07;;
9413;SDS011;4746;35.664;139.738;2022-12-13T06:26:54;11.50;;;10.48;;
9413;SDS011;4746;35.664;139.738;2022-12-13T06:29:23;12.57;;;11.38;;
9413;SDS011;4746;35.664;139.738;2022-12-13T06:31:54;11.00;;;9.90;;
9413;SDS011;4746;35.664;139.738;2022-12-13T06:34:27;13.20;;;11.25;;
9413;SDS011;4746;35.664;139.738;2022-12-13T06:36:59;11.77;;;10.60;;
9413;SDS011;4746;35.664;139.738;2022-12-13T06:39:30;11.98;;;10.88;;
9413;SDS011;4746;35.664;139.738;2022-12-13T06:41:58;11.30;;;10.32;;
9413;SDS011;4746;35.664;139.738;2022-12-13T06:44:30;12.25;;;11.15;;
9413;SDS011;4746;35.664;139.738;2022-12-13T06:47:01;12.23;;;11.13;;
9413;SDS011;4746;35.664;139.738;2022-12-13T06:49:29;11.50;;;10.57;;
9413;SDS011;4746;35.664;139.738;2022-12-13T06:51:56;12.15;;;11.15;;
9413;SDS011;4746;35.664;139.738;2022-12-13T06:54:24;11.25;;;10.15;;
9413;SDS011;4746;35.664;139.738;2022-12-13T06:56:51;12.27;;;11.07;;
9413;SDS011;4746;35.664;139.738;2022-12-13T06:59:20;12.77;;;11.57;;
9413;SDS011;4746;35.664;139.738;2022-12-13T07:01:48;12.40;;;11.18;;
9413;SDS011;4746;35.664;139.738;2022-12-13T07:04:15;12.18;;;11.07;;
9413;SDS011;4746;35.664;139.738;2022-12-13T07:06:43;13.07;;;11.93;;
9413;SDS011;4746;35.664;139.738;2022-12-13T07:09:10;12.33;;;11.33;;
9413;SDS011;4746;35.664;139.738;2022-12-13T07:11:38;13.30;;;12.20;;
9413;SDS011;4746;35.664;139.738;2022-12-13T07:14:05;13.30;;;12.07;;
9413;SDS011;4746;35.664;139.738;2022-12-13T07:16:33;12.80;;;11.47;;
9413;SDS011;4746;35.664;139.738;2022-12-13T07:19:01;13.30;;;12.10;;
9413;SDS011;4746;35.664;139.738;2022-12-13T07:21:29;13.90;;;12.60;;
9413;SDS011;4746;35.664;139.738;2022-12-13T07:23:56;13.70;;;12.50;;
9413;SDS011;4746;35.664;139.738;2022-12-13T07:26:25;13.53;;;12.37;;
9413;SDS011;4746;35.664;139.738;2022-12-13T07:28:53;14.00;;;12.70;;
9413;SDS011;4746;35.664;139.738;2022-12-13T07:31:21;14.97;;;13.63;;
9413;SDS011;4746;35.664;139.738;2022-12-13T07:33:49;14.63;;;13.33;;
9413;SDS011;4746;35.664;139.738;2022-12-13T07:36:18;14.57;;;13.37;;
9413;SDS011;4746;35.664;139.738;2022-12-13T07:38:52;13.93;;;12.63;;
9413;SDS011;4746;35.664;139.738;2022-12-13T07:41:22;14.20;;;12.80;;
9413;SDS011;4746;35.664;139.738;2022-12-13T07:43:51;15.90;;;14.30;;
9413;SDS011;4746;35.664;139.738;2022-12-13T07:46:20;14.43;;;13.13;;
9413;SDS011;4746;35.664;139.738;2022-12-13T07:48:48;14.67;;;13.27;;
9413;SDS011;4746;35.664;139.738;2022-12-13T07:51:16;15.37;;;13.80;;
9413;SDS011;4746;35.664;139.738;2022-12-13T07:53:43;14.43;;;13.03;;
9413;SDS011;4746;35.664;139.738;2022-12-13T07:56:11;14.97;;;13.57;;
9413;SDS011;4746;35.664;139.738;2022-12-13T07:58:38;16.03;;;14.43;;
9413;SDS011;4746;35.664;139.738;2022-12-13T08:01:10;15.47;;;13.83;;
9413;SDS011;4746;35.664;139.738;2022-12-13T08:03:37;16.00;;;14.43;;
9413;SDS011;4746;35.664;139.738;2022-12-13T08:06:07;16.73;;;14.40;;
9413;SDS011;4746;35.664;139.738;2022-12-13T08:08:38;16.53;;;14.20;;
9413;SDS011;4746;35.664;139.738;2022-12-13T08:11:06;16.33;;;14.63;;
9413;SDS011;4746;35.664;139.738;2022-12-13T08:13:37;15.17;;;13.17;;
9413;SDS011;4746;35.664;139.738;2022-12-13T08:16:09;16.20;;;14.37;;
9413;SDS011;4746;35.664;139.738;2022-12-13T08:18:42;15.87;;;14.23;;
9413;SDS011;4746;35.664;139.738;2022-12-13T08:21:12;15.27;;;13.67;;
9413;SDS011;4746;35.664;139.738;2022-12-13T08:23:40;15.20;;;13.60;;
9413;SDS011;4746;35.664;139.738;2022-12-13T08:26:07;17.53;;;13.80;;
9413;SDS011;4746;35.664;139.738;2022-12-13T08:28:35;13.90;;;12.40;;
9413;SDS011;4746;35.664;139.738;2022-12-13T08:31:06;14.67;;;13.13;;
9413;SDS011;4746;35.664;139.738;2022-12-13T08:33:38;14.30;;;12.90;;
9413;SDS011;4746;35.664;139.738;2022-12-13T08:36:12;14.70;;;13.40;;
9413;SDS011;4746;35.664;139.738;2022-12-13T08:38:45;15.23;;;13.83;;
9413;SDS011;4746;35.664;139.738;2022-12-13T08:41:12;15.60;;;14.00;;
9413;SDS011;4746;35.664;139.738;2022-12-13T08:43:40;15.53;;;13.87;;
9413;SDS011;4746;35.664;139.738;2022-12-13T08:46:07;14.53;;;13.20;;
9413;SDS011;4746;35.664;139.738;2022-12-13T08:48:35;15.53;;;14.00;;
9413;SDS011;4746;35.664;139.738;2022-12-13T08:51:04;14.27;;;12.80;;
9413;SDS011;4746;35.664;139.738;2022-12-13T08:53:39;15.37;;;13.73;;
9413;SDS011;4746;35.664;139.738;2022-12-13T08:56:09;15.17;;;13.70;;
9413;SDS011;4746;35.664;139.738;2022-12-13T08:58:38;14.13;;;12.63;;
9413;SDS011;4746;35.664;139.738;2022-12-13T09:01:06;14.30;;;13.00;;
9413;SDS011;4746;35.664;139.738;2022-12-13T09:03:35;15.10;;;13.60;;
9413;SDS011;4746;35.664;139.738;2022-12-13T09:06:07;14.17;;;12.80;;
9413;SDS011;4746;35.664;139.738;2022-12-13T09:08:41;14.73;;;13.27;;
9413;SDS011;4746;35.664;139.738;2022-12-13T09:11:10;15.20;;;13.77;;
9413;SDS011;4746;35.664;139.738;2022-12-13T09:13:38;14.93;;;13.50;;
9413;SDS011;4746;35.664;139.738;2022-12-13T09:16:09;15.40;;;13.80;;
9413;SDS011;4746;35.664;139.738;2022-12-13T09:18:48;16.43;;;14.93;;
9413;SDS011;4746;35.664;139.738;2022-12-13T09:21:19;15.93;;;14.23;;
9413;SDS011;4746;35.664;139.738;2022-12-13T09:23:47;15.73;;;14.10;;
9413;SDS011;4746;35.664;139.738;2022-12-13T09:26:15;16.13;;;14.43;;
9413;SDS011;4746;35.664;139.738;2022-12-13T09:28:42;17.07;;;14.97;;
9413;SDS011;4746;35.664;139.738;2022-12-13T09:31:11;15.27;;;13.90;;
9413;SDS011;4746;35.664;139.738;2022-12-13T09:33:42;13.97;;;12.50;;
9413;SDS011;4746;35.664;139.738;2022-12-13T09:36:12;14.60;;;12.37;;
9413;SDS011;4746;35.664;139.738;2022-12-13T09:38:43;15.20;;;13.70;;
9413;SDS011;4746;35.664;139.738;2022-12-13T09:43:59;15.63;;;14.03;;
9413;SDS011;4746;35.664;139.738;2022-12-13T09:46:41;15.40;;;13.90;;
9413;SDS011;4746;35.664;139.738;2022-12-13T09:49:14;15.20;;;13.80;;
9413;SDS011;4746;35.664;139.738;2022-12-13T09:52:04;15.57;;;14.20;;
9413;SDS011;4746;35.664;139.738;2022-12-13T09:54:43;16.10;;;14.60;;
9413;SDS011;4746;35.664;139.738;2022-12-13T09:57:13;17.90;;;16.00;;
9413;SDS011;4746;35.664;139.738;2022-12-13T09:59:47;16.37;;;14.83;;
9413;SDS011;4746;35.664;139.738;2022-12-13T10:02:22;17.07;;;15.43;;
9413;SDS011;4746;35.664;139.738;2022-12-13T10:05:13;18.37;;;16.67;;
9413;SDS011;4746;35.664;139.738;2022-12-13T10:07:45;18.30;;;16.43;;
9413;SDS011;4746;35.664;139.738;2022-12-13T10:10:13;22.50;;;20.23;;
9413;SDS011;4746;35.664;139.738;2022-12-13T10:12:41;20.87;;;18.80;;
9413;SDS011;4746;35.664;139.738;2022-12-13T10:15:16;17.30;;;15.47;;
9413;SDS011;4746;35.664;139.738;2022-12-13T10:17:47;17.83;;;15.90;;
9413;SDS011;4746;35.664;139.738;2022-12-13T10:20:19;18.03;;;16.33;;
9413;SDS011;4746;35.664;139.738;2022-12-13T10:22:50;17.90;;;16.20;;
9413;SDS011;4746;35.664;139.738;2022-12-13T10:25:19;18.60;;;16.80;;
9413;SDS011;4746;35.664;139.738;2022-12-13T10:28:25;19.20;;;17.30;;
9413;SDS011;4746;35.664;139.738;2022-12-13T10:30:56;19.70;;;17.53;;
9413;SDS011;4746;35.664;139.738;2022-12-13T10:33:34;19.87;;;17.60;;
9413;SDS011;4746;35.664;139.738;2022-12-13T10:36:14;19.63;;;17.73;;
9413;SDS011;4746;35.664;139.738;2022-12-13T10:39:13;20.83;;;18.73;;
9413;SDS011;4746;35.664;139.738;2022-12-13T10:42:05;21.40;;;19.07;;
9413;SDS011;4746;35.664;139.738;2022-12-13T10:44:42;20.87;;;18.67;;
9413;SDS011;4746;35.664;139.738;2022-12-13T10:47:14;21.53;;;19.33;;
9413;SDS011;4746;35.664;139.738;2022-12-13T10:49:56;22.17;;;19.77;;
9413;SDS011;4746;35.664;139.738;2022-12-13T10:52:32;21.07;;;18.97;;
9413;SDS011;4746;35.664;139.738;2022-12-13T10:58:05;22.20;;;19.90;;
9413;SDS011;4746;35.664;139.738;2022-12-13T11:00:44;21.97;;;19.87;;
9413;SDS011;4746;35.664;139.738;2022-12-13T11:03:30;22.17;;;19.93;;
9413;SDS011;4746;35.664;139.738;2022-12-13T11:06:39;21.80;;;19.63;;
9413;SDS011;4746;35.664;139.738;2022-12-13T11:12:01;22.23;;;20.07;;
9413;SDS011;4746;35.664;139.738;2022-12-13T11:14:45;21.23;;;19.13;;
9413;SDS011;4746;35.664;139.738;2022-12-13T11:17:25;22.50;;;20.20;;
9413;SDS011;4746;35.664;139.738;2022-12-13T11:20:05;23.40;;;21.03;;
9413;SDS011;4746;35.664;139.738;2022-12-13T11:23:37;23.33;;;20.93;;
9413;SDS011;4746;35.664;139.738;2022-12-13T11:26:07;20.83;;;18.73;;
9413;SDS011;4746;35.664;139.738;2022-12-13T11:34:44;25.83;;;19.50;;
9413;SDS011;4746;35.664;139.738;2022-12-13T11:41:06;21.67;;;19.40;;
9413;SDS011;4746;35.664;139.738;2022-12-13T11:43:49;18.07;;;15.97;;
9413;SDS011;4746;35.664;139.738;2022-12-13T11:46:53;16.27;;;14.67;;
9413;SDS011;4746;35.664;139.738;2022-12-13T11:57:46;14.07;;;12.67;;
9413;SDS011;4746;35.664;139.738;2022-12-13T12:06:22;18.13;;;16.40;;
9413;SDS011;4746;35.664;139.738;2022-12-13T12:09:19;17.30;;;15.60;;
9413;SDS011;4746;35.664;139.738;2022-12-13T12:12:02;15.23;;;13.73;;
9413;SDS011;4746;35.664;139.738;2022-12-13T12:14:49;15.23;;;13.70;;
9413;SDS011;4746;35.664;139.738;2022-12-13T12:17:31;14.57;;;13.23;;
9413;SDS011;4746;35.664;139.738;2022-12-13T12:20:00;14.47;;;13.07;;
9413;SDS011;4746;35.664;139.738;2022-12-13T12:25:37;8.33;;;7.53;;
9413;SDS011;4746;35.664;139.738;2022-12-13T12:32:02;9.47;;;7.73;;
9413;SDS011;4746;35.664;139.738;2022-12-13T12:44:14;8.00;;;7.23;;
9413;SDS011;4746;35.664;139.738;2022-12-13T12:47:11;9.80;;;8.90;;
9413;SDS011;4746;35.664;139.738;2022-12-13T12:50:13;7.67;;;6.97;;
9413;SDS011;4746;35.664;139.738;2022-12-13T12:53:02;9.23;;;8.30;;
9413;SDS011;4746;35.664;139.738;2022-12-13T13:02:15;6.13;;;5.63;;
9413;SDS011;4746;35.664;139.738;2022-12-13T13:04:52;7.37;;;6.80;;
9413;SDS011;4746;35.664;139.738;2022-12-13T13:07:37;8.30;;;7.57;;
9413;SDS011;4746;35.664;139.738;2022-12-13T13:10:14;7.03;;;6.53;;
9413;SDS011;4746;35.664;139.738;2022-12-13T13:12:42;8.10;;;7.40;;
9413;SDS011;4746;35.664;139.738;2022-12-13T13:17:57;7.60;;;6.90;;
9413;SDS011;4746;35.664;139.738;2022-12-13T13:20:26;8.40;;;7.57;;
9413;SDS011;4746;35.664;139.738;2022-12-13T13:22:55;8.27;;;7.50;;
9413;SDS011;4746;35.664;139.738;2022-12-13T13:25:30;9.67;;;8.87;;
9413;SDS011;4746;35.664;139.738;2022-12-13T13:28:04;9.80;;;8.53;;
9413;SDS011;4746;35.664;139.738;2022-12-13T13:33:43;9.17;;;8.33;;
9413;SDS011;4746;35.664;139.738;2022-12-13T13:39:15;7.90;;;7.10;;
9413;SDS011;4746;35.664;139.738;2022-12-13T13:42:24;8.30;;;7.50;;
9413;SDS011;4746;35.664;139.738;2022-12-13T13:45:14;9.33;;;8.53;;
9413;SDS011;4746;35.664;139.738;2022-12-13T13:48:03;9.60;;;8.80;;
9413;SDS011;4746;35.664;139.738;2022-12-13T13:54:40;11.00;;;9.20;;
9413;SDS011;4746;35.664;139.738;2022-12-13T14:00:21;10.47;;;9.57;;
9413;SDS011;4746;35.664;139.738;2022-12-13T14:28:26;11.80;;;10.70;;
9413;SDS011;4746;35.664;139.738;2022-12-13T14:31:19;12.43;;;11.23;;
9413;SDS011;4746;35.664;139.738;2022-12-13T14:34:20;11.93;;;10.87;;
9413;SDS011;4746;35.664;139.738;2022-12-13T14:36:58;10.07;;;9.07;;
9413;SDS011;4746;35.664;139.738;2022-12-13T14:39:31;11.43;;;10.53;;
9413;SDS011;4746;35.664;139.738;2022-12-13T14:42:00;10.67;;;9.77;;
9413;SDS011;4746;35.664;139.738;2022-12-13T14:44:49;12.07;;;11.03;;
9413;SDS011;4746;35.664;139.738;2022-12-13T14:47:17;12.03;;;11.03;;
9413;SDS011;4746;35.664;139.738;2022-12-13T14:49:49;7.80;;;7.20;;
9413;SDS011;4746;35.664;139.738;2022-12-13T14:52:22;7.87;;;7.27;;
9413;SDS011;4746;35.664;139.738;2022-12-13T14:55:00;6.83;;;6.23;;
9413;SDS011;4746;35.664;139.738;2022-12-13T14:57:31;8.03;;;7.43;;
9413;SDS011;4746;35.664;139.738;2022-12-13T15:00:18;9.57;;;8.73;;
9413;SDS011;4746;35.664;139.738;2022-12-13T15:03:00;11.03;;;10.03;;
9413;SDS011;4746;35.664;139.738;2022-12-13T15:08:08;10.40;;;9.50;;
9413;SDS011;4746;35.664;139.738;2022-12-13T15:10:41;11.43;;;10.50;;
9413;SDS011;4746;35.664;139.738;2022-12-13T15:16:32;6.87;;;6.27;;
9413;SDS011;4746;35.664;139.738;2022-12-13T15:19:16;3.83;;;3.53;;
9413;SDS011;4746;35.664;139.738;2022-12-13T15:24:33;3.90;;;3.60;;
9413;SDS011;4746;35.664;139.738;2022-12-13T15:27:05;5.57;;;5.13;;
9413;SDS011;4746;35.664;139.738;2022-12-13T15:29:34;6.27;;;5.77;;
9413;SDS011;4746;35.664;139.738;2022-12-13T15:32:02;2.60;;;2.40;;
9413;SDS011;4746;35.664;139.738;2022-12-13T15:34:38;3.50;;;3.20;;
9413;SDS011;4746;35.664;139.738;2022-12-13T15:37:16;3.33;;;3.00;;
9413;SDS011;4746;35.664;139.738;2022-12-13T15:39:50;2.90;;;2.70;;
9413;SDS011;4746;35.664;139.738;2022-12-13T15:42:31;3.37;;;3.07;;
9413;SDS011;4746;35.664;139.738;2022-12-13T15:45:04;3.00;;;2.80;;
9413;SDS011;4746;35.664;139.738;2022-12-13T15:47:46;3.53;;;3.33;;
9413;SDS011;4746;35.664;139.738;2022-12-13T15:50:37;2.93;;;2.73;;
9413;SDS011;4746;35.664;139.738;2022-12-13T15:53:27;3.73;;;3.43;;
9413;SDS011;4746;35.664;139.738;2022-12-13T15:55:53;3.60;;;3.40;;
9413;SDS011;4746;35.664;139.738;2022-12-13T15:58:22;4.20;;;3.80;;
9413;SDS011;4746;35.664;139.738;2022-12-13T16:00:58;4.70;;;4.30;;
9413;SDS011;4746;35.664;139.738;2022-12-13T16:03:39;4.30;;;4.00;;
9413;SDS011;4746;35.664;139.738;2022-12-13T16:06:20;4.73;;;4.20;;
9413;SDS011;4746;35.664;139.738;2022-12-13T16:08:51;3.70;;;3.50;;
9413;SDS011;4746;35.664;139.738;2022-12-13T16:11:38;5.07;;;4.67;;
9413;SDS011;4746;35.664;139.738;2022-12-13T16:19:50;5.27;;;4.90;;
9413;SDS011;4746;35.664;139.738;2022-12-13T16:22:19;5.43;;;5.03;;
9413;SDS011;4746;35.664;139.738;2022-12-13T16:24:48;5.00;;;4.60;;
9413;SDS011;4746;35.664;139.738;2022-12-13T16:27:20;5.57;;;4.13;;
9413;SDS011;4746;35.664;139.738;2022-12-13T16:29:49;5.10;;;4.70;;
9413;SDS011;4746;35.664;139.738;2022-12-13T16:32:16;4.97;;;4.50;;
9413;SDS011;4746;35.664;139.738;2022-12-13T16:34:44;5.23;;;4.73;;
9413;SDS011;4746;35.664;139.738;2022-12-13T16:37:12;4.93;;;4.53;;
9413;SDS011;4746;35.664;139.738;2022-12-13T16:39:40;4.80;;;4.43;;
9413;SDS011;4746;35.664;139.738;2022-12-13T16:42:07;4.77;;;4.47;;
9413;SDS011;4746;35.664;139.738;2022-12-13T16:44:35;4.30;;;4.00;;
9413;SDS011;4746;35.664;139.738;2022-12-13T16:47:13;4.67;;;4.27;;
9413;SDS011;4746;35.664;139.738;2022-12-13T16:49:41;4.43;;;4.13;;
9413;SDS011;4746;35.664;139.738;2022-12-13T16:52:09;4.10;;;3.80;;
9413;SDS011;4746;35.664;139.738;2022-12-13T16:54:37;4.30;;;4.03;;
9413;SDS011;4746;35.664;139.738;2022-12-13T16:57:04;4.70;;;4.30;;
9413;SDS011;4746;35.664;139.738;2022-12-13T16:59:31;4.67;;;4.27;;
9413;SDS011;4746;35.664;139.738;2022-12-13T17:01:59;4.23;;;3.83;;
9413;SDS011;4746;35.664;139.738;2022-12-13T17:04:27;4.50;;;4.10;;
9413;SDS011;4746;35.664;139.738;2022-12-13T17:06:54;2.97;;;2.77;;
9413;SDS011;4746;35.664;139.738;2022-12-13T17:09:22;3.87;;;3.57;;
9413;SDS011;4746;35.664;139.738;2022-12-13T17:11:50;3.70;;;3.40;;
9413;SDS011;4746;35.664;139.738;2022-12-13T17:14:17;4.07;;;3.13;;
9413;SDS011;4746;35.664;139.738;2022-12-13T17:16:45;4.57;;;3.53;;
9413;SDS011;4746;35.664;139.738;2022-12-13T17:19:12;3.30;;;3.00;;
9413;SDS011;4746;35.664;139.738;2022-12-13T17:21:41;3.20;;;3.00;;
9413;SDS011;4746;35.664;139.738;2022-12-13T17:24:09;3.37;;;2.73;;
9413;SDS011;4746;35.664;139.738;2022-12-13T17:26:37;4.07;;;2.50;;